Buoy 17652

sailwx.info

Track history (hours):
 
Tides and Currents Weather Stations Pressure Air Temp Water Temp Dewpoint Dewpoint Depression Visibility Wind Speed Wind Dir Waves Ship Positions

Drifting buoy 17652

Last reported at 2016-Jun-30 05:00 UTC. Time now 2016-Jun-30 06:58 UTC.
Position S 40°21' E 022°00'.

Barometer 1002.9 mb
Water temperature 13.6 ° C

Date/timePositionNaut miles runAvg speedWind from/ knotsBaromVisibWave heightAir tempDewpointWater temp
2016-Jun-30 05:00S 40°21' E 022°00'1 1.0 1002.9 13.6
2016-Jun-30 04:00S 40°21' E 021°59'3 2.7 1003.3 13.6
2016-Jun-30 03:00S 40°22' E 021°56'0 0.0 1004.0 13.6
2016-Jun-30 02:00S 40°22' E 021°56'0 0.0 1004.9 13.6
2016-Jun-30 01:00S 40°22' E 021°56'6 1.2 1005.3 13.6
2016-Jun-29 20:00S 40°21' E 021°48'2 1.5 1008.4 13.6
2016-Jun-29 19:00S 40°21' E 021°46'2 1.0 1008.8 13.6
2016-Jun-29 17:00S 40°20' E 021°43'1 0.9 1009.2 13.7
2016-Jun-29 16:00S 40°21' E 021°42'2 1.8 1009.0 13.7
2016-Jun-29 15:00S 40°21' E 021°40'0 0.0 1009.1 13.7
2016-Jun-29 13:00S 40°21' E 021°40'5 0.9 1009.5 13.6
2016-Jun-29 08:00S 40°23' E 021°35'2 2.2 1009.0 13.7
2016-Jun-29 07:00S 40°25' E 021°32'2 2.3 1008.4 13.7
2016-Jun-29 06:00S 40°25' E 021°29'0 0.3 1006.6 13.7
2016-Jun-29 05:00S 40°25' E 021°29'1 1.4 1006.8 13.8
2016-Jun-29 04:00S 40°24' E 021°27'2 1.8 1007.6 13.7
2016-Jun-29 03:00S 40°24' E 021°25'2 2.2 1008.3 13.5
2016-Jun-29 02:00S 40°23' E 021°23'2 0.5 1009.5 13.4
2016-Jun-28 23:00S 40°22' E 021°21'2 1.7 1012.3 13.2
2016-Jun-28 22:00S 40°22' E 021°19'0 0.5 1012.9 13.1
2016-Jun-28 21:00S 40°22' E 021°20'2 1.7 1013.4 12.6
2016-Jun-28 20:00S 40°22' E 021°17'0 0.0 1013.9 12.7
2016-Jun-28 19:00S 40°22' E 021°17'2 1.2 1014.3 12.9
2016-Jun-28 17:00S 40°22' E 021°14'2 1.8 1015.8 13.0
2016-Jun-28 16:00S 40°22' E 021°12'1 1.0 1015.0 13.1
2016-Jun-28 15:00S 40°22' E 021°11'2 1.8 1015.7 13.1
2016-Jun-28 14:00S 40°22' E 021°08'6 0.9 1016.1 13.1
2016-Jun-28 07:00S 40°22' E 021°00'1 0.9 1020.9 13.3
2016-Jun-28 06:00S 40°23' E 020°59'2 2.2 1020.3 13.3
2016-Jun-28 05:00S 40°23' E 020°56'1 1.1 1020.0 13.3
2016-Jun-28 04:00S 40°24' E 020°55'0 0.3 1020.1 13.4
2016-Jun-28 03:00S 40°24' E 020°55'3 2.9 1019.8 13.4
2016-Jun-28 02:00S 40°24' E 020°51'0 0.0 1019.9 13.4
2016-Jun-28 01:00S 40°24' E 020°51'1 1.5 1019.6 13.4
2016-Jun-28 00:00S 40°25' E 020°49'0 0.0 1019.2 13.5
2016-Jun-27 23:00S 40°25' E 020°49'2 1.8 1018.8 13.5
2016-Jun-27 22:00S 40°25' E 020°47'0 0.1 1018.1 13.5
2016-Jun-27 21:00S 40°25' E 020°47'1 1.3 1017.8 13.5
2016-Jun-27 20:00S 40°26' E 020°45'2 2.0 1017.2 13.5
2016-Jun-27 19:00S 40°27' E 020°43'2 1.7 1016.8 13.5
2016-Jun-27 18:00S 40°28' E 020°41'3 0.8 1016.4 13.6
2016-Jun-27 14:00S 40°30' E 020°37'0 0.0 1014.0 13.5
2016-Jun-27 13:00S 40°30' E 020°37'9 1.5 1013.4 13.5
2016-Jun-27 07:00S 40°32' E 020°26'2 1.6 1010.5 12.9
2016-Jun-27 06:00S 40°33' E 020°25'1 0.6 1009.5 12.7
2016-Jun-27 04:00S 40°33' E 020°23'4 1.5 1006.8 12.6
2016-Jun-27 01:00S 40°35' E 020°18'3 2.9 1004.6 13.2
2016-Jun-27 00:00S 40°38' E 020°16'0 0.0 1002.9 13.2
2016-Jun-26 23:00S 40°38' E 020°16'6 6.0 1002.1 13.2
2016-Jun-26 22:00S 40°40' E 020°09'0 0.0 1001.1 13.3
2016-Jun-26 20:00S 40°40' E 020°09'2 2.4 997.6 13.2
2016-Jun-26 19:00S 40°41' E 020°06'2 2.1 995.7 13.2
2016-Jun-26 18:00S 40°42' E 020°03'4 2.1 994.5 13.1
2016-Jun-26 16:00S 40°41' E 019°58'0 0.4 992.8 13.4
2016-Jun-26 15:00S 40°41' E 019°58'3 2.8 994.8 13.6
2016-Jun-26 14:00S 40°40' E 019°54'0 0.0 996.4 13.8
2016-Jun-26 13:00S 40°40' E 019°54'16 1.8 998.4 13.5
2016-Jun-26 04:00S 40°34' E 019°34'2 1.8 1009.2 15.7
2016-Jun-26 03:00S 40°34' E 019°32'1 1.3 1009.9 15.6
2016-Jun-26 02:00S 40°33' E 019°30'5 1.6 1011.3 15.2
2016-Jun-25 23:00S 40°31' E 019°24'2 1.9 1013.7 14.0
2016-Jun-25 22:00S 40°31' E 019°22'0 0.0 1014.7 14.1
2016-Jun-25 21:00S 40°31' E 019°22'2 1.8 1015.1 14.4
2016-Jun-25 20:00S 40°30' E 019°20'0 0.2 1015.6 14.6
2016-Jun-25 18:00S 40°30' E 019°20'2 1.8 1016.8 14.4
2016-Jun-25 17:00S 40°29' E 019°18'2 1.6 1017.3 14.5
2016-Jun-25 16:00S 40°28' E 019°16'2 1.5 1017.0 14.5
2016-Jun-25 15:00S 40°28' E 019°14'6 6.2 1017.7 14.4
2016-Jun-25 14:00S 40°27' E 019°06'0 0.0 1017.8 14.4
2016-Jun-25 13:00S 40°27' E 019°06'3 0.6 1018.5 14.5
2016-Jun-25 08:00S 40°26' E 019°02'1 0.4 1021.2 14.9
2016-Jun-25 06:00S 40°26' E 019°01'2 1.9 1021.1 14.9
2016-Jun-25 05:00S 40°25' E 018°59'2 1.1 1021.1 14.9
2016-Jun-25 03:00S 40°25' E 018°56'2 2.3 1021.6 15.0
2016-Jun-25 02:00S 40°24' E 018°53'0 0.0 1022.1 15.2
2016-Jun-25 01:00S 40°24' E 018°53'2 1.2 1022.6 15.4
2016-Jun-24 23:00S 40°23' E 018°50'3 1.7 1023.3 15.7
2016-Jun-24 21:00S 40°21' E 018°47'1 0.8 1024.3 15.7
2016-Jun-24 20:00S 40°21' E 018°46'2 2.3 1024.6 15.9
2016-Jun-24 19:00S 40°19' E 018°44'0 0.4 1024.6 15.9
2016-Jun-24 18:00S 40°19' E 018°43'1 1.1 1024.6 15.9
2016-Jun-24 17:00S 40°18' E 018°42'1 0.7 1024.8 15.9
2016-Jun-24 16:00S 40°18' E 018°42'3 1.3 1024.8 15.9
2016-Jun-24 14:00S 40°16' E 018°39'2 2.5 1024.3 15.9
2016-Jun-24 13:00S 40°14' E 018°37'5 5.3 1024.3 15.9
2016-Jun-24 12:00S 40°10' E 018°33'3 0.6 1024.5 15.9
2016-Jun-24 07:00S 40°08' E 018°30'3 3.1 1023.2 15.8
2016-Jun-24 06:00S 40°05' E 018°28'0 0.2 1022.4 15.8
2016-Jun-24 04:00S 40°05' E 018°28'3 2.7 1020.5 15.7
2016-Jun-24 03:00S 40°02' E 018°26'2 1.7 1019.7 15.4
2016-Jun-24 02:00S 40°01' E 018°24'0 0.0 1019.1 15.2
2016-Jun-24 01:00S 40°01' E 018°24'2 1.8 1017.8 14.6
2016-Jun-24 00:00S 40°01' E 018°22'3 3.0 1017.1 14.1
2016-Jun-23 23:00S 40°00' E 018°18'1 0.7 1016.6 14.1
2016-Jun-23 22:00S 40°00' E 018°17'1 0.6 1015.9 14.0
2016-Jun-23 21:00S 40°00' E 018°17'3 1.7 1015.7 14.0
2016-Jun-23 19:00S 39°60' E 018°12'5 2.3 1013.9 13.9
2016-Jun-23 17:00S 39°59' E 018°06'1 0.8 1011.9 14.3
2016-Jun-23 16:00S 39°58' E 018°06'3 3.1 1011.9 14.5
2016-Jun-23 15:00S 39°57' E 018°02'2 2.0 1012.2 14.6
2016-Jun-23 14:00S 39°55' E 018°00'4 3.8 1013.1 14.6
2016-Jun-23 13:00S 39°54' E 017°56'0 0.0 1013.7 14.6
2016-Jun-23 12:00S 39°54' E 017°56'8 2.8 1014.5 14.7
2016-Jun-23 09:00S 39°47' E 017°49'4 1.8 1017.7 14.9
2016-Jun-23 07:00S 39°45' E 017°45'4 4.4 1018.4 14.9
2016-Jun-23 06:00S 39°42' E 017°41'1 1.3 1018.9 14.9
2016-Jun-23 05:00S 39°40' E 017°41'3 3.1 1019.1 15.0
2016-Jun-23 04:00S 39°38' E 017°37'2 1.7 1019.4 15.0
2016-Jun-23 03:00S 39°37' E 017°37'0 0.0 1020.1 15.0
2016-Jun-23 02:00S 39°37' E 017°37'3 1.3 1020.8 15.1
2016-Jun-23 00:00S 39°35' E 017°34'3 3.5 1022.1 15.2
2016-Jun-22 23:00S 39°32' E 017°31'0 0.0 1022.6 15.1
2016-Jun-22 21:00S 39°32' E 017°31'6 3.1 1023.2 15.0
2016-Jun-22 19:00S 39°27' E 017°27'0 0.2 1023.6 15.0
2016-Jun-22 17:00S 39°27' E 017°27'2 2.0 1023.1 15.0
2016-Jun-22 16:00S 39°26' E 017°25'2 2.2 1023.4 15.2
2016-Jun-22 15:00S 39°24' E 017°23'0 0.0 1023.3 15.3
2016-Jun-22 14:00S 39°24' E 017°23'3 1.5 1023.5 15.5
2016-Jun-22 12:00S 39°21' E 017°22'9 2.9 1023.8 15.9
2016-Jun-22 09:00S 39°14' E 017°16'1 0.5 1025.7 15.1
2016-Jun-22 07:00S 39°13' E 017°17'3 1.4 1025.2 15.0
2016-Jun-22 05:00S 39°11' E 017°15'1 0.8 1024.7 15.0
2016-Jun-22 04:00S 39°10' E 017°16'4 1.8 1024.8 15.0
2016-Jun-22 02:00S 39°07' E 017°13'3 2.7 1025.2 15.1
2016-Jun-22 01:00S 39°05' E 017°11'0 0.0 1025.6 15.1
2016-Jun-22 00:00S 39°05' E 017°11'5 2.7 1025.9 15.1
2016-Jun-21 22:00S 39°01' E 017°07'1 1.3 1026.6 15.3
2016-Jun-21 21:00S 39°02' E 017°08'1 1.3 1026.6 15.4
2016-Jun-21 20:00S 39°01' E 017°07'2 1.5 1026.9 15.4
2016-Jun-21 19:00S 38°59' E 017°06'4 2.0 1027.1 15.4
2016-Jun-21 17:00S 38°56' E 017°03'1 1.2 1027.3 15.3
2016-Jun-21 16:00S 38°55' E 017°02'2 2.3 1027.3 15.3
2016-Jun-21 15:00S 38°54' E 016°59'0 0.0 1027.3 15.4
2016-Jun-21 14:00S 38°54' E 016°59'3 2.7 1027.4 15.4
2016-Jun-21 13:00S 38°51' E 016°58'0 0.0 1027.8 15.4
2016-Jun-21 12:00S 38°51' E 016°58'7 1.9 1028.4 15.4
2016-Jun-21 08:00S 38°46' E 016°52'0 0.0 1029.5 15.0
2016-Jun-21 06:00S 38°45' E 016°52'1 1.3 1028.7 14.9
2016-Jun-21 05:00S 38°45' E 016°51'2 2.1 1028.2 14.9
2016-Jun-21 04:00S 38°44' E 016°48'1 0.7 1027.7 14.9
2016-Jun-21 02:00S 38°44' E 016°46'2 2.3 1027.8 14.2
2016-Jun-21 01:00S 38°43' E 016°44'0 0.0 1027.7 14.8
2016-Jun-21 00:00S 38°43' E 016°44'7 3.6 1027.5 14.0
2016-Jun-20 22:00S 38°42' E 016°34'0 0.1 1027.5 14.1
2016-Jun-20 20:00S 38°42' E 016°34'7 2.2 1026.4 14.1
2016-Jun-20 17:00S 38°41' E 016°26'5 4.6 1024.6 14.1
2016-Jun-20 16:00S 38°39' E 016°20'3 1.0 1023.9 14.0
2016-Jun-20 13:00S 38°39' E 016°17'0 0.0 1021.4 14.2
2016-Jun-20 12:00S 38°39' E 016°17'6 1.4 1020.9 14.3
2016-Jun-20 08:00S 38°38' E 016°10'8 2.6 1018.4 14.6
2016-Jun-20 05:00S 38°39' E 015°60'   1015.2 14.6
Track history (hours):
 
Tides and Currents Weather Stations Pressure Air Temp Water Temp Dewpoint Dewpoint Depression Visibility Wind Speed Wind Dir Waves Ship Positions

Drifting buoy 17652

Last reported at 2016-Jun-30 05:00 UTC. Time now 2016-Jun-30 06:58 UTC.
Position S 40°21' E 022°00'.

Barometer 1002.9 mb
Water temperature 13.6 ° C

Date/timePositionNaut miles runAvg speedWind from/ knotsBaromVisibWave heightAir tempDewpointWater temp
2016-Jun-30 05:00S 40°21' E 022°00'1 1.0 1002.9 13.6
2016-Jun-30 04:00S 40°21' E 021°59'3 2.7 1003.3 13.6
2016-Jun-30 03:00S 40°22' E 021°56'0 0.0 1004.0 13.6
2016-Jun-30 02:00S 40°22' E 021°56'0 0.0 1004.9 13.6
2016-Jun-30 01:00S 40°22' E 021°56'6 1.2 1005.3 13.6
2016-Jun-29 20:00S 40°21' E 021°48'2 1.5 1008.4 13.6
2016-Jun-29 19:00S 40°21' E 021°46'2 1.0 1008.8 13.6
2016-Jun-29 17:00S 40°20' E 021°43'1 0.9 1009.2 13.7
2016-Jun-29 16:00S 40°21' E 021°42'2 1.8 1009.0 13.7
2016-Jun-29 15:00S 40°21' E 021°40'0 0.0 1009.1 13.7
2016-Jun-29 13:00S 40°21' E 021°40'5 0.9 1009.5 13.6
2016-Jun-29 08:00S 40°23' E 021°35'2 2.2 1009.0 13.7
2016-Jun-29 07:00S 40°25' E 021°32'2 2.3 1008.4 13.7
2016-Jun-29 06:00S 40°25' E 021°29'0 0.3 1006.6 13.7
2016-Jun-29 05:00S 40°25' E 021°29'1 1.4 1006.8 13.8
2016-Jun-29 04:00S 40°24' E 021°27'2 1.8 1007.6 13.7
2016-Jun-29 03:00S 40°24' E 021°25'2 2.2 1008.3 13.5
2016-Jun-29 02:00S 40°23' E 021°23'2 0.5 1009.5 13.4
2016-Jun-28 23:00S 40°22' E 021°21'2 1.7 1012.3 13.2
2016-Jun-28 22:00S 40°22' E 021°19'0 0.5 1012.9 13.1
2016-Jun-28 21:00S 40°22' E 021°20'2 1.7 1013.4 12.6
2016-Jun-28 20:00S 40°22' E 021°17'0 0.0 1013.9 12.7
2016-Jun-28 19:00S 40°22' E 021°17'2 1.2 1014.3 12.9
2016-Jun-28 17:00S 40°22' E 021°14'2 1.8 1015.8 13.0
2016-Jun-28 16:00S 40°22' E 021°12'1 1.0 1015.0 13.1
2016-Jun-28 15:00S 40°22' E 021°11'2 1.8 1015.7 13.1
2016-Jun-28 14:00S 40°22' E 021°08'6 0.9 1016.1 13.1
2016-Jun-28 07:00S 40°22' E 021°00'1 0.9 1020.9 13.3
2016-Jun-28 06:00S 40°23' E 020°59'2 2.2 1020.3 13.3
2016-Jun-28 05:00S 40°23' E 020°56'1 1.1 1020.0 13.3
2016-Jun-28 04:00S 40°24' E 020°55'0 0.3 1020.1 13.4
2016-Jun-28 03:00S 40°24' E 020°55'3 2.9 1019.8 13.4
2016-Jun-28 02:00S 40°24' E 020°51'0 0.0 1019.9 13.4
2016-Jun-28 01:00S 40°24' E 020°51'1 1.5 1019.6 13.4
2016-Jun-28 00:00S 40°25' E 020°49'0 0.0 1019.2 13.5
2016-Jun-27 23:00S 40°25' E 020°49'2 1.8 1018.8 13.5
2016-Jun-27 22:00S 40°25' E 020°47'0 0.1 1018.1 13.5
2016-Jun-27 21:00S 40°25' E 020°47'1 1.3 1017.8 13.5
2016-Jun-27 20:00S 40°26' E 020°45'2 2.0 1017.2 13.5
2016-Jun-27 19:00S 40°27' E 020°43'2 1.7 1016.8 13.5
2016-Jun-27 18:00S 40°28' E 020°41'3 0.8 1016.4 13.6
2016-Jun-27 14:00S 40°30' E 020°37'0 0.0 1014.0 13.5
2016-Jun-27 13:00S 40°30' E 020°37'9 1.5 1013.4 13.5
2016-Jun-27 07:00S 40°32' E 020°26'2 1.6 1010.5 12.9
2016-Jun-27 06:00S 40°33' E 020°25'1 0.6 1009.5 12.7
2016-Jun-27 04:00S 40°33' E 020°23'4 1.5 1006.8 12.6
2016-Jun-27 01:00S 40°35' E 020°18'3 2.9 1004.6 13.2
2016-Jun-27 00:00S 40°38' E 020°16'0 0.0 1002.9 13.2
2016-Jun-26 23:00S 40°38' E 020°16'6 6.0 1002.1 13.2
2016-Jun-26 22:00S 40°40' E 020°09'0 0.0 1001.1 13.3
2016-Jun-26 20:00S 40°40' E 020°09'2 2.4 997.6 13.2
2016-Jun-26 19:00S 40°41' E 020°06'2 2.1 995.7 13.2
2016-Jun-26 18:00S 40°42' E 020°03'4 2.1 994.5 13.1
2016-Jun-26 16:00S 40°41' E 019°58'0 0.4 992.8 13.4
2016-Jun-26 15:00S 40°41' E 019°58'3 2.8 994.8 13.6
2016-Jun-26 14:00S 40°40' E 019°54'0 0.0 996.4 13.8
2016-Jun-26 13:00S 40°40' E 019°54'16 1.8 998.4 13.5
2016-Jun-26 04:00S 40°34' E 019°34'2 1.8 1009.2 15.7
2016-Jun-26 03:00S 40°34' E 019°32'1 1.3 1009.9 15.6
2016-Jun-26 02:00S 40°33' E 019°30'5 1.6 1011.3 15.2
2016-Jun-25 23:00S 40°31' E 019°24'2 1.9 1013.7 14.0
2016-Jun-25 22:00S 40°31' E 019°22'0 0.0 1014.7 14.1
2016-Jun-25 21:00S 40°31' E 019°22'2 1.8 1015.1 14.4
2016-Jun-25 20:00S 40°30' E 019°20'0 0.2 1015.6 14.6
2016-Jun-25 18:00S 40°30' E 019°20'2 1.8 1016.8 14.4
2016-Jun-25 17:00S 40°29' E 019°18'2 1.6 1017.3 14.5
2016-Jun-25 16:00S 40°28' E 019°16'2 1.5 1017.0 14.5
2016-Jun-25 15:00S 40°28' E 019°14'6 6.2 1017.7 14.4
2016-Jun-25 14:00S 40°27' E 019°06'0 0.0 1017.8 14.4
2016-Jun-25 13:00S 40°27' E 019°06'3 0.6 1018.5 14.5
2016-Jun-25 08:00S 40°26' E 019°02'1 0.4 1021.2 14.9
2016-Jun-25 06:00S 40°26' E 019°01'2 1.9 1021.1 14.9
2016-Jun-25 05:00S 40°25' E 018°59'2 1.1 1021.1 14.9
2016-Jun-25 03:00S 40°25' E 018°56'2 2.3 1021.6 15.0
2016-Jun-25 02:00S 40°24' E 018°53'0 0.0 1022.1 15.2
2016-Jun-25 01:00S 40°24' E 018°53'2 1.2 1022.6 15.4
2016-Jun-24 23:00S 40°23' E 018°50'3 1.7 1023.3 15.7
2016-Jun-24 21:00S 40°21' E 018°47'1 0.8 1024.3 15.7
2016-Jun-24 20:00S 40°21' E 018°46'2 2.3 1024.6 15.9
2016-Jun-24 19:00S 40°19' E 018°44'0 0.4 1024.6 15.9
2016-Jun-24 18:00S 40°19' E 018°43'1 1.1 1024.6 15.9
2016-Jun-24 17:00S 40°18' E 018°42'1 0.7 1024.8 15.9
2016-Jun-24 16:00S 40°18' E 018°42'3 1.3 1024.8 15.9
2016-Jun-24 14:00S 40°16' E 018°39'2 2.5 1024.3 15.9
2016-Jun-24 13:00S 40°14' E 018°37'5 5.3 1024.3 15.9
2016-Jun-24 12:00S 40°10' E 018°33'3 0.6 1024.5 15.9
2016-Jun-24 07:00S 40°08' E 018°30'3 3.1 1023.2 15.8
2016-Jun-24 06:00S 40°05' E 018°28'0 0.2 1022.4 15.8
2016-Jun-24 04:00S 40°05' E 018°28'3 2.7 1020.5 15.7
2016-Jun-24 03:00S 40°02' E 018°26'2 1.7 1019.7 15.4
2016-Jun-24 02:00S 40°01' E 018°24'0 0.0 1019.1 15.2
2016-Jun-24 01:00S 40°01' E 018°24'2 1.8 1017.8 14.6
2016-Jun-24 00:00S 40°01' E 018°22'3 3.0 1017.1 14.1
2016-Jun-23 23:00S 40°00' E 018°18'1 0.7 1016.6 14.1
2016-Jun-23 22:00S 40°00' E 018°17'1 0.6 1015.9 14.0
2016-Jun-23 21:00S 40°00' E 018°17'3 1.7 1015.7 14.0
2016-Jun-23 19:00S 39°60' E 018°12'5 2.3 1013.9 13.9
2016-Jun-23 17:00S 39°59' E 018°06'1 0.8 1011.9 14.3
2016-Jun-23 16:00S 39°58' E 018°06'3 3.1 1011.9 14.5
2016-Jun-23 15:00S 39°57' E 018°02'2 2.0 1012.2 14.6
2016-Jun-23 14:00S 39°55' E 018°00'4 3.8 1013.1 14.6
2016-Jun-23 13:00S 39°54' E 017°56'0 0.0 1013.7 14.6
2016-Jun-23 12:00S 39°54' E 017°56'8 2.8 1014.5 14.7
2016-Jun-23 09:00S 39°47' E 017°49'4 1.8 1017.7 14.9
2016-Jun-23 07:00S 39°45' E 017°45'4 4.4 1018.4 14.9
2016-Jun-23 06:00S 39°42' E 017°41'1 1.3 1018.9 14.9
2016-Jun-23 05:00S 39°40' E 017°41'3 3.1 1019.1 15.0
2016-Jun-23 04:00S 39°38' E 017°37'2 1.7 1019.4 15.0
2016-Jun-23 03:00S 39°37' E 017°37'0 0.0 1020.1 15.0
2016-Jun-23 02:00S 39°37' E 017°37'3 1.3 1020.8 15.1
2016-Jun-23 00:00S 39°35' E 017°34'3 3.5 1022.1 15.2
2016-Jun-22 23:00S 39°32' E 017°31'0 0.0 1022.6 15.1
2016-Jun-22 21:00S 39°32' E 017°31'6 3.1 1023.2 15.0
2016-Jun-22 19:00S 39°27' E 017°27'0 0.2 1023.6 15.0
2016-Jun-22 17:00S 39°27' E 017°27'2 2.0 1023.1 15.0
2016-Jun-22 16:00S 39°26' E 017°25'2 2.2 1023.4 15.2
2016-Jun-22 15:00S 39°24' E 017°23'0 0.0 1023.3 15.3
2016-Jun-22 14:00S 39°24' E 017°23'3 1.5 1023.5 15.5
2016-Jun-22 12:00S 39°21' E 017°22'9 2.9 1023.8 15.9
2016-Jun-22 09:00S 39°14' E 017°16'1 0.5 1025.7 15.1
2016-Jun-22 07:00S 39°13' E 017°17'3 1.4 1025.2 15.0
2016-Jun-22 05:00S 39°11' E 017°15'1 0.8 1024.7 15.0
2016-Jun-22 04:00S 39°10' E 017°16'4 1.8 1024.8 15.0
2016-Jun-22 02:00S 39°07' E 017°13'3 2.7 1025.2 15.1
2016-Jun-22 01:00S 39°05' E 017°11'0 0.0 1025.6 15.1
2016-Jun-22 00:00S 39°05' E 017°11'5 2.7 1025.9 15.1
2016-Jun-21 22:00S 39°01' E 017°07'1 1.3 1026.6 15.3
2016-Jun-21 21:00S 39°02' E 017°08'1 1.3 1026.6 15.4
2016-Jun-21 20:00S 39°01' E 017°07'2 1.5 1026.9 15.4
2016-Jun-21 19:00S 38°59' E 017°06'4 2.0 1027.1 15.4
2016-Jun-21 17:00S 38°56' E 017°03'1 1.2 1027.3 15.3
2016-Jun-21 16:00S 38°55' E 017°02'2 2.3 1027.3 15.3
2016-Jun-21 15:00S 38°54' E 016°59'0 0.0 1027.3 15.4
2016-Jun-21 14:00S 38°54' E 016°59'3 2.7 1027.4 15.4
2016-Jun-21 13:00S 38°51' E 016°58'0 0.0 1027.8 15.4
2016-Jun-21 12:00S 38°51' E 016°58'7 1.9 1028.4 15.4
2016-Jun-21 08:00S 38°46' E 016°52'0 0.0 1029.5 15.0
2016-Jun-21 06:00S 38°45' E 016°52'1 1.3 1028.7 14.9
2016-Jun-21 05:00S 38°45' E 016°51'2 2.1 1028.2 14.9
2016-Jun-21 04:00S 38°44' E 016°48'1 0.7 1027.7 14.9
2016-Jun-21 02:00S 38°44' E 016°46'2 2.3 1027.8 14.2
2016-Jun-21 01:00S 38°43' E 016°44'0 0.0 1027.7 14.8
2016-Jun-21 00:00S 38°43' E 016°44'7 3.6 1027.5 14.0
2016-Jun-20 22:00S 38°42' E 016°34'0 0.1 1027.5 14.1
2016-Jun-20 20:00S 38°42' E 016°34'7 2.2 1026.4 14.1
2016-Jun-20 17:00S 38°41' E 016°26'5 4.6 1024.6 14.1
2016-Jun-20 16:00S 38°39' E 016°20'3 1.0 1023.9 14.0
2016-Jun-20 13:00S 38°39' E 016°17'0 0.0 1021.4 14.2
2016-Jun-20 12:00S 38°39' E 016°17'6 1.4 1020.9 14.3
2016-Jun-20 08:00S 38°38' E 016°10'8 2.6 1018.4 14.6
2016-Jun-20 05:00S 38°39' E 015°60'   1015.2 14.6

Dump ship's entire track history